Point Mugu NAWC, California
Current Conditions -  °F | °C
As of 6:06 AM on Saturday 25 Oct 2014 (Local Time) from KNTD Reporting Station
Scattered Clouds Scattered Clouds  
Wind Chill: 60°   Ceiling: Unl
Heat Index: 60°   Visibility: 8mi
Dew Point: 55°   Wind: 6mph
Humidity: 83%   Direction: 20°NNE
Pressure: 30.01"   Gusts: NA
Location:  34.1°N, 119.06°W
Report Text: KNTD 251306Z 02005KT 8SM FEW003 SCT008 SCT200 16/13 A3001 RMK AO2 T01560128 $
Loading
Personal Weather Stations






























Interactive Weather Map
Tropical Storm Tracking
New forecast layout! Learn more

10-Day Weather Forecast

Advertisements
Track Severe Weather on mobile